sensor_id;sensor_type;location;lat;lon;timestamp;pressure;altitude;pressure_sealevel;temperature;humidity
8140;BME280;4111;50.972;7.072;2023-08-30T00:00:59;100417.81;;;16.29;97.63
8140;BME280;4111;50.972;7.072;2023-08-30T00:03:25;100427.94;;;16.28;98.03
8140;BME280;4111;50.972;7.072;2023-08-30T00:05:52;100424.44;;;16.22;97.50
8140;BME280;4111;50.972;7.072;2023-08-30T00:08:18;100424.22;;;16.19;97.88
8140;BME280;4111;50.972;7.072;2023-08-30T00:10:46;100422.66;;;16.13;98.18
8140;BME280;4111;50.972;7.072;2023-08-30T00:13:12;100426.78;;;16.10;98.47
8140;BME280;4111;50.972;7.072;2023-08-30T00:15:39;100423.16;;;16.15;98.57
8140;BME280;4111;50.972;7.072;2023-08-30T00:18:05;100424.34;;;16.09;98.77
8140;BME280;4111;50.972;7.072;2023-08-30T00:20:32;100422.47;;;16.04;98.83
8140;BME280;4111;50.972;7.072;2023-08-30T00:22:59;100435.44;;;15.93;99.31
8140;BME280;4111;50.972;7.072;2023-08-30T00:25:26;100433.88;;;15.87;99.75
8140;BME280;4111;50.972;7.072;2023-08-30T00:27:52;100426.78;;;15.86;99.91
8140;BME280;4111;50.972;7.072;2023-08-30T00:30:19;100423.72;;;15.88;100.00
8140;BME280;4111;50.972;7.072;2023-08-30T00:32:45;100421.22;;;15.91;99.98
8140;BME280;4111;50.972;7.072;2023-08-30T00:35:11;100418.22;;;15.93;99.75
8140;BME280;4111;50.972;7.072;2023-08-30T00:37:38;100419.53;;;15.95;99.51
8140;BME280;4111;50.972;7.072;2023-08-30T00:40:05;100416.88;;;15.90;99.49
8140;BME280;4111;50.972;7.072;2023-08-30T00:42:32;100416.69;;;15.81;99.96
8140;BME280;4111;50.972;7.072;2023-08-30T00:44:59;100414.78;;;15.82;100.00
8140;BME280;4111;50.972;7.072;2023-08-30T00:47:25;100413.13;;;15.81;100.00
8140;BME280;4111;50.972;7.072;2023-08-30T00:49:52;100416.16;;;15.79;100.00
8140;BME280;4111;50.972;7.072;2023-08-30T00:52:19;100418.03;;;15.84;100.00
8140;BME280;4111;50.972;7.072;2023-08-30T00:54:45;100402.66;;;15.88;100.00
8140;BME280;4111;50.972;7.072;2023-08-30T00:57:12;100408.59;;;15.95;100.00
8140;BME280;4111;50.972;7.072;2023-08-30T00:59:38;100404.28;;;15.89;100.00
8140;BME280;4111;50.972;7.072;2023-08-30T01:02:05;100404.03;;;15.85;100.00
8140;BME280;4111;50.972;7.072;2023-08-30T01:04:31;100396.16;;;15.84;100.00
8140;BME280;4111;50.972;7.072;2023-08-30T01:06:58;100392.34;;;15.80;100.00
8140;BME280;4111;50.972;7.072;2023-08-30T01:09:25;100390.16;;;15.82;100.00
8140;BME280;4111;50.972;7.072;2023-08-30T01:12:09;100392.34;;;15.80;100.00
8140;BME280;4111;50.972;7.072;2023-08-30T01:14:47;100386.75;;;15.90;100.00
8140;BME280;4111;50.972;7.072;2023-08-30T01:17:16;100385.13;;;15.89;100.00
8140;BME280;4111;50.972;7.072;2023-08-30T01:27:48;100370.38;;;15.85;100.00
8140;BME280;4111;50.972;7.072;2023-08-30T01:30:15;100369.34;;;15.81;100.00
8140;BME280;4111;50.972;7.072;2023-08-30T01:32:44;100368.56;;;15.75;100.00
8140;BME280;4111;50.972;7.072;2023-08-30T01:35:12;100360.03;;;15.82;100.00
8140;BME280;4111;50.972;7.072;2023-08-30T01:37:45;100365.38;;;15.92;100.00
8140;BME280;4111;50.972;7.072;2023-08-30T01:40:13;100357.69;;;15.94;100.00
8140;BME280;4111;50.972;7.072;2023-08-30T01:42:42;100361.75;;;15.97;100.00
8140;BME280;4111;50.972;7.072;2023-08-30T01:45:11;100353.84;;;15.95;100.00
8140;BME280;4111;50.972;7.072;2023-08-30T01:47:41;100356.13;;;15.88;100.00
8140;BME280;4111;50.972;7.072;2023-08-30T01:50:10;100343.47;;;15.92;100.00
8140;BME280;4111;50.972;7.072;2023-08-30T01:52:37;100356.03;;;15.93;100.00
8140;BME280;4111;50.972;7.072;2023-08-30T01:55:05;100353.31;;;15.93;100.00
8140;BME280;4111;50.972;7.072;2023-08-30T01:57:32;100352.75;;;15.96;100.00
8140;BME280;4111;50.972;7.072;2023-08-30T01:59:58;100353.53;;;15.97;100.00
8140;BME280;4111;50.972;7.072;2023-08-30T02:02:29;100357.69;;;15.94;100.00
8140;BME280;4111;50.972;7.072;2023-08-30T02:04:55;100356.56;;;15.95;100.00
8140;BME280;4111;50.972;7.072;2023-08-30T02:07:25;100353.53;;;15.97;100.00
8140;BME280;4111;50.972;7.072;2023-08-30T02:09:58;100356.25;;;16.02;100.00
8140;BME280;4111;50.972;7.072;2023-08-30T02:12:31;100353.25;;;15.98;100.00
8140;BME280;4111;50.972;7.072;2023-08-30T02:15:01;100351.63;;;15.97;100.00
8140;BME280;4111;50.972;7.072;2023-08-30T02:17:29;100355.72;;;16.00;100.00
8140;BME280;4111;50.972;7.072;2023-08-30T02:19:56;100358.97;;;16.02;100.00
8140;BME280;4111;50.972;7.072;2023-08-30T02:22:23;100365.72;;;16.10;100.00
8140;BME280;4111;50.972;7.072;2023-08-30T02:24:49;100353.13;;;16.09;100.00
8140;BME280;4111;50.972;7.072;2023-08-30T02:27:15;100360.06;;;16.01;100.00
8140;BME280;4111;50.972;7.072;2023-08-30T02:29:42;100359.91;;;15.92;100.00
8140;BME280;4111;50.972;7.072;2023-08-30T02:32:08;100356.03;;;15.93;100.00
8140;BME280;4111;50.972;7.072;2023-08-30T02:34:35;100349.19;;;15.96;100.00
8140;BME280;4111;50.972;7.072;2023-08-30T02:37:02;100353.84;;;15.95;100.00
8140;BME280;4111;50.972;7.072;2023-08-30T02:39:28;100355.00;;;15.89;100.00
8140;BME280;4111;50.972;7.072;2023-08-30T02:41:54;100344.66;;;15.86;100.00
8140;BME280;4111;50.972;7.072;2023-08-30T02:44:21;100339.75;;;15.83;100.00
8140;BME280;4111;50.972;7.072;2023-08-30T02:46:47;100343.53;;;15.87;100.00
8140;BME280;4111;50.972;7.072;2023-08-30T02:49:13;100340.28;;;15.85;100.00
8140;BME280;4111;50.972;7.072;2023-08-30T02:51:40;100338.13;;;15.82;100.00
8140;BME280;4111;50.972;7.072;2023-08-30T02:54:06;100343.59;;;15.82;100.00
8140;BME280;4111;50.972;7.072;2023-08-30T02:56:33;100342.44;;;15.88;100.00
8140;BME280;4111;50.972;7.072;2023-08-30T02:58:59;100341.41;;;15.84;100.00
8140;BME280;4111;50.972;7.072;2023-08-30T03:01:25;100333.69;;;15.86;100.00
8140;BME280;4111;50.972;7.072;2023-08-30T03:03:52;100337.78;;;15.89;100.00
8140;BME280;4111;50.972;7.072;2023-08-30T03:06:18;100338.06;;;15.87;100.00
8140;BME280;4111;50.972;7.072;2023-08-30T03:08:45;100333.47;;;15.82;100.00
8140;BME280;4111;50.972;7.072;2023-08-30T03:11:12;100333.47;;;15.82;100.00
8140;BME280;4111;50.972;7.072;2023-08-30T03:13:39;100331.81;;;15.81;100.00
8140;BME280;4111;50.972;7.072;2023-08-30T03:16:15;100327.47;;;15.80;100.00
8140;BME280;4111;50.972;7.072;2023-08-30T03:18:43;100333.22;;;15.79;100.00
8140;BME280;4111;50.972;7.072;2023-08-30T03:21:09;100329.97;;;15.77;100.00
8140;BME280;4111;50.972;7.072;2023-08-30T03:23:37;100326.72;;;15.75;100.00
8140;BME280;4111;50.972;7.072;2023-08-30T03:26:12;100323.44;;;15.73;100.00
8140;BME280;4111;50.972;7.072;2023-08-30T03:28:39;100325.91;;;15.69;100.00
8140;BME280;4111;50.972;7.072;2023-08-30T03:31:16;100325.16;;;15.63;100.00
8140;BME280;4111;50.972;7.072;2023-08-30T03:33:43;100326.00;;;15.64;100.00
8140;BME280;4111;50.972;7.072;2023-08-30T03:36:13;100318.38;;;15.56;100.00
8140;BME280;4111;50.972;7.072;2023-08-30T03:38:40;100318.50;;;15.45;100.00
8140;BME280;4111;50.972;7.072;2023-08-30T03:41:07;100313.63;;;15.42;100.00
8140;BME280;4111;50.972;7.072;2023-08-30T03:43:33;100320.19;;;15.41;100.00
8140;BME280;4111;50.972;7.072;2023-08-30T03:46:01;100318.25;;;15.42;100.00
8140;BME280;4111;50.972;7.072;2023-08-30T03:48:27;100320.19;;;15.41;100.00
8140;BME280;4111;50.972;7.072;2023-08-30T03:50:54;100312.78;;;15.42;100.00
8140;BME280;4111;50.972;7.072;2023-08-30T03:53:21;100315.06;;;15.35;100.00
8140;BME280;4111;50.972;7.072;2023-08-30T03:55:48;100305.81;;;15.31;100.00
8140;BME280;4111;50.972;7.072;2023-08-30T03:58:15;100301.19;;;15.26;100.00
8140;BME280;4111;50.972;7.072;2023-08-30T04:00:42;100301.50;;;15.24;100.00
8140;BME280;4111;50.972;7.072;2023-08-30T04:03:09;100304.22;;;15.24;100.00
8140;BME280;4111;50.972;7.072;2023-08-30T04:05:37;100297.16;;;15.18;100.00
8140;BME280;4111;50.972;7.072;2023-08-30T04:08:06;100307.63;;;15.11;100.00
8140;BME280;4111;50.972;7.072;2023-08-30T04:13:06;100307.94;;;15.04;100.00
8140;BME280;4111;50.972;7.072;2023-08-30T04:15:38;100307.47;;;14.97;100.00
8140;BME280;4111;50.972;7.072;2023-08-30T04:18:06;100306.09;;;15.00;100.00
8140;BME280;4111;50.972;7.072;2023-08-30T04:20:33;100301.72;;;14.99;100.00
8140;BME280;4111;50.972;7.072;2023-08-30T04:23:00;100293.53;;;14.99;100.00
8140;BME280;4111;50.972;7.072;2023-08-30T04:25:32;100296.19;;;15.04;100.00
8140;BME280;4111;50.972;7.072;2023-08-30T04:28:00;100289.13;;;15.03;100.00
8140;BME280;4111;50.972;7.072;2023-08-30T04:30:26;100298.94;;;15.04;100.00
8140;BME280;4111;50.972;7.072;2023-08-30T04:32:52;100298.41;;;15.02;100.00
8140;BME280;4111;50.972;7.072;2023-08-30T04:35:19;100295.94;;;15.00;100.00
8140;BME280;4111;50.972;7.072;2023-08-30T04:37:46;100294.00;;;15.06;100.00
8140;BME280;4111;50.972;7.072;2023-08-30T04:40:12;100295.66;;;15.07;100.00
8140;BME280;4111;50.972;7.072;2023-08-30T04:42:39;100289.13;;;15.03;100.00
8140;BME280;4111;50.972;7.072;2023-08-30T04:45:07;100285.84;;;15.01;100.00
8140;BME280;4111;50.972;7.072;2023-08-30T04:47:33;100286.94;;;15.00;100.00
8140;BME280;4111;50.972;7.072;2023-08-30T04:50:00;100288.59;;;15.01;100.00
8140;BME280;4111;50.972;7.072;2023-08-30T04:52:26;100287.75;;;15.00;100.00
8140;BME280;4111;50.972;7.072;2023-08-30T04:54:52;100288.88;;;14.99;100.00
8140;BME280;4111;50.972;7.072;2023-08-30T04:57:19;100295.25;;;14.90;100.00
8140;BME280;4111;50.972;7.072;2023-08-30T04:59:46;100283.25;;;14.85;100.00
8140;BME280;4111;50.972;7.072;2023-08-30T05:02:12;100285.19;;;14.85;100.00
8140;BME280;4111;50.972;7.072;2023-08-30T05:04:39;100285.19;;;14.85;100.00
8140;BME280;4111;50.972;7.072;2023-08-30T05:07:05;100284.34;;;14.84;100.00
8140;BME280;4111;50.972;7.072;2023-08-30T05:09:32;100290.03;;;14.93;100.00
8140;BME280;4111;50.972;7.072;2023-08-30T05:12:00;100282.13;;;14.86;100.00
8140;BME280;4111;50.972;7.072;2023-08-30T05:14:27;100281.16;;;14.72;100.00
8140;BME280;4111;50.972;7.072;2023-08-30T05:16:53;100279.31;;;14.62;100.00
8140;BME280;4111;50.972;7.072;2023-08-30T05:19:20;100281.53;;;14.60;100.00
8140;BME280;4111;50.972;7.072;2023-08-30T05:21:46;100270.50;;;14.71;100.00
8140;BME280;4111;50.972;7.072;2023-08-30T05:24:12;100277.91;;;14.70;100.00
8140;BME280;4111;50.972;7.072;2023-08-30T05:26:39;100275.16;;;14.70;100.00
8140;BME280;4111;50.972;7.072;2023-08-30T05:29:05;100278.09;;;14.79;100.00
8140;BME280;4111;50.972;7.072;2023-08-30T05:31:32;100269.91;;;14.79;100.00
8140;BME280;4111;50.972;7.072;2023-08-30T05:33:58;100269.34;;;14.82;100.00
8140;BME280;4111;50.972;7.072;2023-08-30T05:36:24;100259.75;;;14.84;100.00
8140;BME280;4111;50.972;7.072;2023-08-30T05:38:51;100266.84;;;14.85;100.00
8140;BME280;4111;50.972;7.072;2023-08-30T05:41:17;100254.97;;;14.71;100.00
8140;BME280;4111;50.972;7.072;2023-08-30T05:43:44;100257.97;;;14.70;100.00
8140;BME280;4111;50.972;7.072;2023-08-30T05:46:10;100251.91;;;14.73;100.00
8140;BME280;4111;50.972;7.072;2023-08-30T05:48:41;100248.56;;;14.81;100.00
8140;BME280;4111;50.972;7.072;2023-08-30T05:51:07;100249.31;;;14.92;100.00
8140;BME280;4111;50.972;7.072;2023-08-30T05:53:34;100246.03;;;14.90;100.00
8140;BME280;4111;50.972;7.072;2023-08-30T05:56:01;100235.97;;;14.85;100.00
8140;BME280;4111;50.972;7.072;2023-08-30T05:58:27;100241.63;;;14.94;100.00
8140;BME280;4111;50.972;7.072;2023-08-30T06:00:56;100244.25;;;15.04;100.00
8140;BME280;4111;50.972;7.072;2023-08-30T06:03:22;100245.38;;;15.03;100.00
8140;BME280;4111;50.972;7.072;2023-08-30T06:05:49;100238.75;;;15.09;100.00
8140;BME280;4111;50.972;7.072;2023-08-30T06:08:15;100240.09;;;15.12;100.00
8140;BME280;4111;50.972;7.072;2023-08-30T06:10:43;100237.00;;;15.18;100.00
8140;BME280;4111;50.972;7.072;2023-08-30T06:13:10;100241.34;;;15.24;100.00
8140;BME280;4111;50.972;7.072;2023-08-30T06:15:36;100240.72;;;15.27;100.00
8140;BME280;4111;50.972;7.072;2023-08-30T06:18:04;100231.09;;;15.35;100.00
8140;BME280;4111;50.972;7.072;2023-08-30T06:20:31;100233.84;;;15.30;100.00
8140;BME280;4111;50.972;7.072;2023-08-30T06:23:02;100229.34;;;15.44;100.00
8140;BME280;4111;50.972;7.072;2023-08-30T06:25:29;100229.34;;;15.44;100.00
8140;BME280;4111;50.972;7.072;2023-08-30T06:27:57;100225.25;;;15.42;100.00
8140;BME280;4111;50.972;7.072;2023-08-30T06:30:25;100228.28;;;15.40;100.00
8140;BME280;4111;50.972;7.072;2023-08-30T06:32:52;100223.09;;;15.39;100.00
8140;BME280;4111;50.972;7.072;2023-08-30T06:35:18;100220.81;;;15.46;100.00
8140;BME280;4111;50.972;7.072;2023-08-30T06:37:45;100222.44;;;15.71;100.00
8140;BME280;4111;50.972;7.072;2023-08-30T06:40:12;100215.00;;;15.77;100.00
8140;BME280;4111;50.972;7.072;2023-08-30T06:42:38;100217.53;;;15.92;100.00
8140;BME280;4111;50.972;7.072;2023-08-30T06:45:05;100218.66;;;16.10;100.00
8140;BME280;4111;50.972;7.072;2023-08-30T06:47:31;100214.09;;;16.38;100.00
8140;BME280;4111;50.972;7.072;2023-08-30T06:49:59;100211.84;;;16.59;100.00
8140;BME280;4111;50.972;7.072;2023-08-30T06:52:26;100218.31;;;16.50;98.96
8140;BME280;4111;50.972;7.072;2023-08-30T06:54:53;100212.44;;;16.23;98.25
8140;BME280;4111;50.972;7.072;2023-08-30T06:57:19;100212.22;;;16.20;98.46
8140;BME280;4111;50.972;7.072;2023-08-30T06:59:46;100220.94;;;16.22;98.59
8140;BME280;4111;50.972;7.072;2023-08-30T07:02:12;100219.16;;;16.31;98.51
8140;BME280;4111;50.972;7.072;2023-08-30T07:04:39;100215.00;;;16.34;98.51
8140;BME280;4111;50.972;7.072;2023-08-30T07:07:06;100212.69;;;16.41;98.10
8140;BME280;4111;50.972;7.072;2023-08-30T07:09:32;100198.69;;;16.42;97.20
8140;BME280;4111;50.972;7.072;2023-08-30T07:11:59;100207.81;;;16.38;97.18
8140;BME280;4111;50.972;7.072;2023-08-30T07:14:26;100202.38;;;16.52;97.41
8140;BME280;4111;50.972;7.072;2023-08-30T07:16:52;100198.38;;;16.63;96.74
8140;BME280;4111;50.972;7.072;2023-08-30T07:19:18;100200.19;;;16.68;96.21
8140;BME280;4111;50.972;7.072;2023-08-30T07:21:45;100193.44;;;16.79;96.08
8140;BME280;4111;50.972;7.072;2023-08-30T07:24:11;100202.94;;;16.87;95.68
8140;BME280;4111;50.972;7.072;2023-08-30T07:26:38;100193.59;;;17.01;95.31
8140;BME280;4111;50.972;7.072;2023-08-30T07:29:04;100192.06;;;17.09;94.58
8140;BME280;4111;50.972;7.072;2023-08-30T07:31:33;100192.88;;;17.23;94.15
8140;BME280;4111;50.972;7.072;2023-08-30T07:34:00;100191.38;;;17.31;93.17
8140;BME280;4111;50.972;7.072;2023-08-30T07:36:27;100188.91;;;17.43;92.52
8140;BME280;4111;50.972;7.072;2023-08-30T07:39:12;100189.31;;;17.51;90.99
8140;BME280;4111;50.972;7.072;2023-08-30T07:41:38;100197.94;;;17.72;91.23
8140;BME280;4111;50.972;7.072;2023-08-30T07:44:05;100195.41;;;17.89;90.41
8140;BME280;4111;50.972;7.072;2023-08-30T07:46:31;100192.16;;;17.87;89.29
8140;BME280;4111;50.972;7.072;2023-08-30T07:48:57;100189.03;;;18.02;89.32
8140;BME280;4111;50.972;7.072;2023-08-30T07:51:24;100191.28;;;18.00;88.18
8140;BME280;4111;50.972;7.072;2023-08-30T07:53:50;100183.50;;;18.16;88.39
8140;BME280;4111;50.972;7.072;2023-08-30T07:56:17;100183.28;;;18.27;87.78
8140;BME280;4111;50.972;7.072;2023-08-30T07:58:43;100184.09;;;18.27;86.52
8140;BME280;4111;50.972;7.072;2023-08-30T08:01:09;100185.47;;;18.38;86.32
8140;BME280;4111;50.972;7.072;2023-08-30T08:03:36;100188.47;;;18.51;85.25
8140;BME280;4111;50.972;7.072;2023-08-30T08:06:11;100190.81;;;18.66;84.88
8140;BME280;4111;50.972;7.072;2023-08-30T08:08:37;100185.84;;;18.77;83.92
8140;BME280;4111;50.972;7.072;2023-08-30T08:11:04;100183.72;;;18.74;83.22
8140;BME280;4111;50.972;7.072;2023-08-30T08:13:30;100189.69;;;18.67;81.85
8140;BME280;4111;50.972;7.072;2023-08-30T08:15:57;100181.75;;;18.88;81.74
8140;BME280;4111;50.972;7.072;2023-08-30T08:18:24;100183.75;;;19.05;81.37
8140;BME280;4111;50.972;7.072;2023-08-30T08:20:51;100179.47;;;19.21;81.10
8140;BME280;4111;50.972;7.072;2023-08-30T08:23:17;100186.09;;;19.29;80.25
8140;BME280;4111;50.972;7.072;2023-08-30T08:25:44;100181.75;;;19.37;80.21
8140;BME280;4111;50.972;7.072;2023-08-30T08:28:10;100175.13;;;19.38;79.51
8140;BME280;4111;50.972;7.072;2023-08-30T08:30:37;100175.63;;;19.40;79.18
8140;BME280;4111;50.972;7.072;2023-08-30T08:33:04;100172.56;;;19.50;77.95
8140;BME280;4111;50.972;7.072;2023-08-30T08:35:30;100166.75;;;19.60;77.74
8140;BME280;4111;50.972;7.072;2023-08-30T08:37:57;100170.16;;;19.57;76.41
8140;BME280;4111;50.972;7.072;2023-08-30T08:40:23;100164.72;;;19.75;76.47
8140;BME280;4111;50.972;7.072;2023-08-30T08:43:10;100165.38;;;19.89;75.89
8140;BME280;4111;50.972;7.072;2023-08-30T08:45:38;100154.50;;;20.01;75.46
8140;BME280;4111;50.972;7.072;2023-08-30T08:48:05;100156.13;;;20.11;74.40
8140;BME280;4111;50.972;7.072;2023-08-30T08:50:32;100155.31;;;20.19;74.52
8140;BME280;4111;50.972;7.072;2023-08-30T08:53:01;100156.09;;;20.20;74.12
8140;BME280;4111;50.972;7.072;2023-08-30T08:55:29;100151.75;;;20.19;73.39
8140;BME280;4111;50.972;7.072;2023-08-30T08:57:58;100151.91;;;20.05;72.78
8140;BME280;4111;50.972;7.072;2023-08-30T09:00:26;100160.16;;;20.14;73.03
8140;BME280;4111;50.972;7.072;2023-08-30T09:02:54;100153.34;;;20.20;72.76
8140;BME280;4111;50.972;7.072;2023-08-30T09:05:21;100158.56;;;20.30;72.57
8140;BME280;4111;50.972;7.072;2023-08-30T09:07:49;100148.34;;;20.31;71.98
8140;BME280;4111;50.972;7.072;2023-08-30T09:10:20;100142.28;;;20.55;71.72
8140;BME280;4111;50.972;7.072;2023-08-30T09:12:48;100140.50;;;20.68;71.22
8140;BME280;4111;50.972;7.072;2023-08-30T09:15:14;100144.97;;;20.81;70.19
8140;BME280;4111;50.972;7.072;2023-08-30T09:17:42;100138.97;;;20.88;70.46
8140;BME280;4111;50.972;7.072;2023-08-30T09:20:10;100142.38;;;20.85;70.81
8140;BME280;4111;50.972;7.072;2023-08-30T09:22:42;100139.97;;;20.74;69.98
8140;BME280;4111;50.972;7.072;2023-08-30T09:25:11;100141.63;;;20.58;67.65
8140;BME280;4111;50.972;7.072;2023-08-30T09:27:37;100143.59;;;20.49;67.05
8140;BME280;4111;50.972;7.072;2023-08-30T09:30:09;100126.91;;;20.36;66.00
8140;BME280;4111;50.972;7.072;2023-08-30T09:32:41;100131.13;;;20.34;65.83
8140;BME280;4111;50.972;7.072;2023-08-30T09:35:08;100134.88;;;20.29;65.37
8140;BME280;4111;50.972;7.072;2023-08-30T09:37:35;100131.50;;;20.15;64.81
8140;BME280;4111;50.972;7.072;2023-08-30T09:40:02;100124.19;;;20.01;64.70
8140;BME280;4111;50.972;7.072;2023-08-30T09:42:28;100127.94;;;19.97;65.26
8140;BME280;4111;50.972;7.072;2023-08-30T09:44:56;100137.47;;;19.82;66.47
8140;BME280;4111;50.972;7.072;2023-08-30T09:47:26;100137.47;;;19.82;67.52
8140;BME280;4111;50.972;7.072;2023-08-30T09:49:55;100137.28;;;19.61;68.42
8140;BME280;4111;50.972;7.072;2023-08-30T09:52:24;100135.63;;;19.42;70.05
8140;BME280;4111;50.972;7.072;2023-08-30T09:54:51;100133.50;;;19.31;70.81
8140;BME280;4111;50.972;7.072;2023-08-30T09:57:19;100118.75;;;19.27;71.22
8140;BME280;4111;50.972;7.072;2023-08-30T09:59:48;100121.50;;;19.27;72.05
8140;BME280;4111;50.972;7.072;2023-08-30T10:02:15;100119.56;;;19.27;72.74
8140;BME280;4111;50.972;7.072;2023-08-30T10:04:43;100127.50;;;19.20;72.91
8140;BME280;4111;50.972;7.072;2023-08-30T10:07:11;100121.81;;;19.25;74.33
8140;BME280;4111;50.972;7.072;2023-08-30T10:09:41;100114.53;;;19.29;74.54
8140;BME280;4111;50.972;7.072;2023-08-30T10:12:28;100115.88;;;19.32;74.78
8140;BME280;4111;50.972;7.072;2023-08-30T10:14:55;100112.75;;;19.25;76.01
8140;BME280;4111;50.972;7.072;2023-08-30T10:17:27;100110.50;;;19.27;77.03
8140;BME280;4111;50.972;7.072;2023-08-30T10:19:55;100112.13;;;19.28;76.29
8140;BME280;4111;50.972;7.072;2023-08-30T10:22:23;100109.38;;;19.28;76.67
8140;BME280;4111;50.972;7.072;2023-08-30T10:24:53;100105.47;;;19.20;76.97
8140;BME280;4111;50.972;7.072;2023-08-30T10:27:38;100118.06;;;19.12;77.08
8140;BME280;4111;50.972;7.072;2023-08-30T10:30:07;100118.69;;;19.00;76.94
8140;BME280;4111;50.972;7.072;2023-08-30T10:32:42;100122.66;;;18.86;77.13
8140;BME280;4111;50.972;7.072;2023-08-30T10:35:13;100120.25;;;18.84;77.88
8140;BME280;4111;50.972;7.072;2023-08-30T10:37:40;100111.72;;;18.72;78.26
8140;BME280;4111;50.972;7.072;2023-08-30T10:40:08;100101.06;;;18.70;78.69
8140;BME280;4111;50.972;7.072;2023-08-30T10:42:35;100105.72;;;18.70;79.77
8140;BME280;4111;50.972;7.072;2023-08-30T10:45:05;100102.53;;;18.76;80.05
8140;BME280;4111;50.972;7.072;2023-08-30T10:47:35;100103.09;;;18.87;80.10
8140;BME280;4111;50.972;7.072;2023-08-30T10:50:06;100107.50;;;18.97;79.95
8140;BME280;4111;50.972;7.072;2023-08-30T10:52:33;100102.19;;;19.00;79.95
8140;BME280;4111;50.972;7.072;2023-08-30T10:55:14;100096.38;;;19.02;80.48
8140;BME280;4111;50.972;7.072;2023-08-30T10:57:42;100089.22;;;19.01;80.52
8140;BME280;4111;50.972;7.072;2023-08-30T11:02:44;100080.03;;;19.14;80.36
8140;BME280;4111;50.972;7.072;2023-08-30T11:05:20;100078.75;;;19.20;80.90
8140;BME280;4111;50.972;7.072;2023-08-30T11:07:47;100076.19;;;19.24;81.06
8140;BME280;4111;50.972;7.072;2023-08-30T11:10:16;100073.75;;;19.22;80.48
8140;BME280;4111;50.972;7.072;2023-08-30T11:12:44;100074.41;;;19.19;80.61
8140;BME280;4111;50.972;7.072;2023-08-30T11:15:12;100076.13;;;19.15;81.19
8140;BME280;4111;50.972;7.072;2023-08-30T11:17:42;100085.53;;;19.14;81.70
8140;BME280;4111;50.972;7.072;2023-08-30T11:20:11;100086.81;;;19.08;82.24
8140;BME280;4111;50.972;7.072;2023-08-30T11:22:48;100097.47;;;19.01;82.94
8140;BME280;4111;50.972;7.072;2023-08-30T11:25:15;100104.69;;;18.79;83.02
8140;BME280;4111;50.972;7.072;2023-08-30T11:27:43;100132.72;;;18.36;86.04
8140;BME280;4111;50.972;7.072;2023-08-30T11:30:10;100136.84;;;18.02;89.19
8140;BME280;4111;50.972;7.072;2023-08-30T11:32:39;100131.25;;;18.08;91.42
8140;BME280;4111;50.972;7.072;2023-08-30T11:35:07;100137.34;;;18.04;92.81
8140;BME280;4111;50.972;7.072;2023-08-30T11:37:33;100136.00;;;17.93;93.95
8140;BME280;4111;50.972;7.072;2023-08-30T11:40:02;100132.75;;;17.77;95.80
8140;BME280;4111;50.972;7.072;2023-08-30T11:42:30;100143.03;;;17.86;96.83
8140;BME280;4111;50.972;7.072;2023-08-30T11:44:57;100133.94;;;17.85;97.87
8140;BME280;4111;50.972;7.072;2023-08-30T11:47:25;100141.78;;;17.78;98.84
8140;BME280;4111;50.972;7.072;2023-08-30T11:49:52;100129.69;;;17.79;99.84
8140;BME280;4111;50.972;7.072;2023-08-30T11:52:20;100135.09;;;17.84;100.00
8140;BME280;4111;50.972;7.072;2023-08-30T11:54:47;100134.50;;;17.87;100.00
8140;BME280;4111;50.972;7.072;2023-08-30T11:57:14;100142.59;;;17.78;100.00
8140;BME280;4111;50.972;7.072;2023-08-30T11:59:40;100137.25;;;17.73;100.00
8140;BME280;4111;50.972;7.072;2023-08-30T12:02:12;100139.34;;;17.76;100.00
8140;BME280;4111;50.972;7.072;2023-08-30T12:04:45;100134.50;;;17.73;100.00
8140;BME280;4111;50.972;7.072;2023-08-30T12:07:30;100136.41;;;17.73;100.00
8140;BME280;4111;50.972;7.072;2023-08-30T12:10:04;100136.03;;;17.66;100.00
8140;BME280;4111;50.972;7.072;2023-08-30T12:12:31;100135.03;;;17.61;100.00
8140;BME280;4111;50.972;7.072;2023-08-30T12:14:58;100139.91;;;17.64;100.00
8140;BME280;4111;50.972;7.072;2023-08-30T12:17:24;100127.25;;;17.77;100.00
8140;BME280;4111;50.972;7.072;2023-08-30T12:19:58;100134.81;;;17.72;100.00
8140;BME280;4111;50.972;7.072;2023-08-30T12:22:41;100126.44;;;17.77;100.00
8140;BME280;4111;50.972;7.072;2023-08-30T12:25:20;100125.81;;;17.80;100.00
8140;BME280;4111;50.972;7.072;2023-08-30T12:27:47;100132.41;;;17.79;100.00
8140;BME280;4111;50.972;7.072;2023-08-30T12:30:17;100123.69;;;17.77;100.00
8140;BME280;4111;50.972;7.072;2023-08-30T12:32:45;100125.31;;;17.78;100.00
8140;BME280;4111;50.972;7.072;2023-08-30T12:35:13;100124.69;;;17.81;100.00
8140;BME280;4111;50.972;7.072;2023-08-30T12:37:40;100122.19;;;17.71;100.00
8140;BME280;4111;50.972;7.072;2023-08-30T12:40:07;100118.81;;;17.74;100.00
8140;BME280;4111;50.972;7.072;2023-08-30T12:42:33;100117.69;;;17.75;100.00
8140;BME280;4111;50.972;7.072;2023-08-30T12:45:00;100107.72;;;17.79;100.00
8140;BME280;4111;50.972;7.072;2023-08-30T12:47:27;100128.72;;;17.61;100.00
8140;BME280;4111;50.972;7.072;2023-08-30T12:49:54;100120.72;;;17.51;100.00
8140;BME280;4111;50.972;7.072;2023-08-30T12:52:21;100122.56;;;17.28;100.00
8140;BME280;4111;50.972;7.072;2023-08-30T12:54:47;100124.41;;;17.32;100.00
8140;BME280;4111;50.972;7.072;2023-08-30T12:57:14;100117.19;;;17.22;100.00
8140;BME280;4111;50.972;7.072;2023-08-30T12:59:40;100123.91;;;17.16;100.00
8140;BME280;4111;50.972;7.072;2023-08-30T13:02:07;100119.31;;;17.25;100.00
8140;BME280;4111;50.972;7.072;2023-08-30T13:04:34;100113.13;;;17.34;100.00
8140;BME280;4111;50.972;7.072;2023-08-30T13:07:04;100121.13;;;17.44;100.00
8140;BME280;4111;50.972;7.072;2023-08-30T13:09:31;100116.25;;;17.41;100.00
8140;BME280;4111;50.972;7.072;2023-08-30T13:11:57;100121.22;;;17.39;100.00
8140;BME280;4111;50.972;7.072;2023-08-30T13:14:23;100123.47;;;17.37;100.00
8140;BME280;4111;50.972;7.072;2023-08-30T13:16:50;100119.00;;;17.41;100.00
8140;BME280;4111;50.972;7.072;2023-08-30T13:19:16;100118.25;;;17.49;100.00
8140;BME280;4111;50.972;7.072;2023-08-30T13:21:43;100112.78;;;17.49;100.00